sensor_id;sensor_type;location;lat;lon;timestamp;P1;durP1;ratioP1;P2;durP2;ratioP2
43487;SDS011;29078;41.932;25.554;2022-09-14T00:02:12;2.38;;;2.00;;
43487;SDS011;29078;41.932;25.554;2022-09-14T00:04:37;4.55;;;1.73;;
43487;SDS011;29078;41.932;25.554;2022-09-14T00:07:04;2.05;;;1.58;;
43487;SDS011;29078;41.932;25.554;2022-09-14T00:09:29;3.25;;;1.58;;
43487;SDS011;29078;41.932;25.554;2022-09-14T00:11:55;1.98;;;1.58;;
43487;SDS011;29078;41.932;25.554;2022-09-14T00:14:21;1.73;;;1.63;;
43487;SDS011;29078;41.932;25.554;2022-09-14T00:16:46;2.45;;;1.73;;
43487;SDS011;29078;41.932;25.554;2022-09-14T00:19:19;1.50;;;1.40;;
43487;SDS011;29078;41.932;25.554;2022-09-14T00:21:54;1.83;;;1.73;;
43487;SDS011;29078;41.932;25.554;2022-09-14T00:24:21;2.10;;;1.60;;
43487;SDS011;29078;41.932;25.554;2022-09-14T00:26:48;1.98;;;1.77;;
43487;SDS011;29078;41.932;25.554;2022-09-14T00:29:14;1.55;;;1.45;;
43487;SDS011;29078;41.932;25.554;2022-09-14T00:31:40;1.85;;;1.60;;
43487;SDS011;29078;41.932;25.554;2022-09-14T00:34:07;1.73;;;1.30;;
43487;SDS011;29078;41.932;25.554;2022-09-14T00:36:37;1.80;;;1.70;;
43487;SDS011;29078;41.932;25.554;2022-09-14T00:39:05;3.25;;;1.67;;
43487;SDS011;29078;41.932;25.554;2022-09-14T00:41:33;1.70;;;1.60;;
43487;SDS011;29078;41.932;25.554;2022-09-14T00:46:31;1.90;;;1.70;;
43487;SDS011;29078;41.932;25.554;2022-09-14T00:49:00;2.63;;;1.77;;
43487;SDS011;29078;41.932;25.554;2022-09-14T00:51:28;2.05;;;1.85;;
43487;SDS011;29078;41.932;25.554;2022-09-14T00:53:57;1.75;;;1.65;;
43487;SDS011;29078;41.932;25.554;2022-09-14T00:56:24;1.88;;;1.77;;
43487;SDS011;29078;41.932;25.554;2022-09-14T00:58:50;1.70;;;1.50;;
43487;SDS011;29078;41.932;25.554;2022-09-14T01:01:18;2.08;;;1.50;;
43487;SDS011;29078;41.932;25.554;2022-09-14T01:03:43;2.15;;;1.50;;
43487;SDS011;29078;41.932;25.554;2022-09-14T01:09:14;3.95;;;1.52;;
43487;SDS011;29078;41.932;25.554;2022-09-14T01:11:50;3.05;;;1.92;;
43487;SDS011;29078;41.932;25.554;2022-09-14T01:19:29;2.42;;;1.73;;
43487;SDS011;29078;41.932;25.554;2022-09-14T01:22:13;2.33;;;1.70;;
43487;SDS011;29078;41.932;25.554;2022-09-14T01:24:50;3.85;;;1.77;;
43487;SDS011;29078;41.932;25.554;2022-09-14T01:27:30;3.38;;;2.00;;
43487;SDS011;29078;41.932;25.554;2022-09-14T01:37:41;2.22;;;1.85;;
43487;SDS011;29078;41.932;25.554;2022-09-14T01:40:22;2.17;;;1.70;;
43487;SDS011;29078;41.932;25.554;2022-09-14T01:42:55;1.80;;;1.70;;
43487;SDS011;29078;41.932;25.554;2022-09-14T01:45:26;2.05;;;1.88;;
43487;SDS011;29078;41.932;25.554;2022-09-14T01:47:54;5.60;;;2.22;;
43487;SDS011;29078;41.932;25.554;2022-09-14T01:50:28;2.10;;;1.90;;
43487;SDS011;29078;41.932;25.554;2022-09-14T01:53:04;2.10;;;1.80;;
43487;SDS011;29078;41.932;25.554;2022-09-14T01:55:42;4.35;;;2.00;;
43487;SDS011;29078;41.932;25.554;2022-09-14T01:58:11;3.25;;;2.00;;
43487;SDS011;29078;41.932;25.554;2022-09-14T02:00:43;2.95;;;1.92;;
43487;SDS011;29078;41.932;25.554;2022-09-14T02:03:15;1.98;;;1.80;;
43487;SDS011;29078;41.932;25.554;2022-09-14T02:05:59;4.00;;;2.20;;
43487;SDS011;29078;41.932;25.554;2022-09-14T02:08:32;5.00;;;1.98;;
43487;SDS011;29078;41.932;25.554;2022-09-14T02:10:58;2.70;;;1.90;;
43487;SDS011;29078;41.932;25.554;2022-09-14T02:13:24;3.70;;;1.80;;
43487;SDS011;29078;41.932;25.554;2022-09-14T02:15:51;3.88;;;2.10;;
43487;SDS011;29078;41.932;25.554;2022-09-14T02:18:17;3.33;;;2.13;;
43487;SDS011;29078;41.932;25.554;2022-09-14T02:20:54;2.25;;;2.05;;
43487;SDS011;29078;41.932;25.554;2022-09-14T02:23:24;5.07;;;2.28;;
43487;SDS011;29078;41.932;25.554;2022-09-14T02:25:50;2.22;;;2.00;;
43487;SDS011;29078;41.932;25.554;2022-09-14T02:28:15;3.70;;;2.25;;
43487;SDS011;29078;41.932;25.554;2022-09-14T02:31:04;5.57;;;2.10;;
43487;SDS011;29078;41.932;25.554;2022-09-14T02:33:51;2.42;;;2.20;;
43487;SDS011;29078;41.932;25.554;2022-09-14T02:36:21;2.83;;;2.55;;
43487;SDS011;29078;41.932;25.554;2022-09-14T02:42:11;3.20;;;2.60;;
43487;SDS011;29078;41.932;25.554;2022-09-14T02:50:04;2.85;;;2.55;;
43487;SDS011;29078;41.932;25.554;2022-09-14T02:52:47;2.85;;;2.15;;
43487;SDS011;29078;41.932;25.554;2022-09-14T02:55:22;3.95;;;2.28;;
43487;SDS011;29078;41.932;25.554;2022-09-14T02:57:59;7.13;;;2.47;;
43487;SDS011;29078;41.932;25.554;2022-09-14T03:00:27;4.38;;;2.70;;
43487;SDS011;29078;41.932;25.554;2022-09-14T03:02:53;3.22;;;2.13;;
43487;SDS011;29078;41.932;25.554;2022-09-14T03:05:19;3.08;;;2.20;;
43487;SDS011;29078;41.932;25.554;2022-09-14T03:07:44;3.38;;;2.47;;
43487;SDS011;29078;41.932;25.554;2022-09-14T03:10:10;4.60;;;2.30;;
43487;SDS011;29078;41.932;25.554;2022-09-14T03:12:36;3.03;;;2.10;;
43487;SDS011;29078;41.932;25.554;2022-09-14T03:15:02;2.60;;;2.40;;
43487;SDS011;29078;41.932;25.554;2022-09-14T03:17:28;3.05;;;2.50;;
43487;SDS011;29078;41.932;25.554;2022-09-14T03:19:53;2.88;;;2.65;;
43487;SDS011;29078;41.932;25.554;2022-09-14T03:22:18;3.35;;;2.72;;
43487;SDS011;29078;41.932;25.554;2022-09-14T03:24:44;3.72;;;2.40;;
43487;SDS011;29078;41.932;25.554;2022-09-14T03:27:09;4.43;;;2.50;;
43487;SDS011;29078;41.932;25.554;2022-09-14T03:29:34;5.00;;;2.72;;
43487;SDS011;29078;41.932;25.554;2022-09-14T03:32:00;2.85;;;2.50;;
43487;SDS011;29078;41.932;25.554;2022-09-14T03:34:25;3.60;;;2.25;;
43487;SDS011;29078;41.932;25.554;2022-09-14T03:36:51;5.05;;;2.80;;
43487;SDS011;29078;41.932;25.554;2022-09-14T03:39:16;5.70;;;2.40;;
43487;SDS011;29078;41.932;25.554;2022-09-14T03:41:41;2.90;;;2.70;;
43487;SDS011;29078;41.932;25.554;2022-09-14T03:44:07;4.68;;;2.80;;
43487;SDS011;29078;41.932;25.554;2022-09-14T03:46:34;3.42;;;2.83;;
43487;SDS011;29078;41.932;25.554;2022-09-14T03:48:59;4.70;;;2.88;;
43487;SDS011;29078;41.932;25.554;2022-09-14T03:51:25;8.02;;;2.85;;
43487;SDS011;29078;41.932;25.554;2022-09-14T03:53:50;3.10;;;2.80;;
43487;SDS011;29078;41.932;25.554;2022-09-14T03:56:17;3.08;;;2.85;;
43487;SDS011;29078;41.932;25.554;2022-09-14T03:58:45;5.45;;;3.38;;
43487;SDS011;29078;41.932;25.554;2022-09-14T04:01:13;5.90;;;3.03;;
43487;SDS011;29078;41.932;25.554;2022-09-14T04:03:40;4.22;;;3.10;;
43487;SDS011;29078;41.932;25.554;2022-09-14T04:06:06;5.05;;;3.10;;
43487;SDS011;29078;41.932;25.554;2022-09-14T04:08:36;6.25;;;3.58;;
43487;SDS011;29078;41.932;25.554;2022-09-14T04:11:07;4.80;;;3.70;;
43487;SDS011;29078;41.932;25.554;2022-09-14T04:13:34;4.77;;;3.20;;
43487;SDS011;29078;41.932;25.554;2022-09-14T04:15:59;4.68;;;3.80;;
43487;SDS011;29078;41.932;25.554;2022-09-14T04:18:25;6.30;;;3.00;;
43487;SDS011;29078;41.932;25.554;2022-09-14T04:20:55;8.02;;;3.40;;
43487;SDS011;29078;41.932;25.554;2022-09-14T04:23:29;4.20;;;3.80;;
43487;SDS011;29078;41.932;25.554;2022-09-14T04:25:54;4.18;;;3.15;;
43487;SDS011;29078;41.932;25.554;2022-09-14T04:28:20;9.68;;;7.25;;
43487;SDS011;29078;41.932;25.554;2022-09-14T04:33:21;6.03;;;4.10;;
43487;SDS011;29078;41.932;25.554;2022-09-14T04:35:54;7.70;;;3.83;;
43487;SDS011;29078;41.932;25.554;2022-09-14T04:38:21;8.20;;;4.32;;
43487;SDS011;29078;41.932;25.554;2022-09-14T04:40:46;5.43;;;3.90;;
43487;SDS011;29078;41.932;25.554;2022-09-14T04:43:12;5.22;;;4.32;;
43487;SDS011;29078;41.932;25.554;2022-09-14T04:45:37;6.20;;;4.20;;
43487;SDS011;29078;41.932;25.554;2022-09-14T04:48:03;6.88;;;4.05;;
43487;SDS011;29078;41.932;25.554;2022-09-14T04:50:30;7.00;;;5.55;;
43487;SDS011;29078;41.932;25.554;2022-09-14T04:52:56;7.22;;;4.80;;
43487;SDS011;29078;41.932;25.554;2022-09-14T04:55:22;8.88;;;5.18;;
43487;SDS011;29078;41.932;25.554;2022-09-14T04:57:48;8.80;;;5.80;;
43487;SDS011;29078;41.932;25.554;2022-09-14T05:00:15;12.18;;;7.90;;
43487;SDS011;29078;41.932;25.554;2022-09-14T05:02:40;11.65;;;7.82;;
43487;SDS011;29078;41.932;25.554;2022-09-14T05:05:06;9.07;;;7.10;;
43487;SDS011;29078;41.932;25.554;2022-09-14T05:07:32;9.40;;;6.32;;
43487;SDS011;29078;41.932;25.554;2022-09-14T05:09:57;12.55;;;7.80;;
43487;SDS011;29078;41.932;25.554;2022-09-14T05:12:23;11.18;;;8.13;;
43487;SDS011;29078;41.932;25.554;2022-09-14T05:14:48;12.40;;;8.02;;
43487;SDS011;29078;41.932;25.554;2022-09-14T05:17:13;12.13;;;7.90;;
43487;SDS011;29078;41.932;25.554;2022-09-14T05:19:39;8.80;;;7.57;;
43487;SDS011;29078;41.932;25.554;2022-09-14T05:22:04;11.65;;;8.88;;
43487;SDS011;29078;41.932;25.554;2022-09-14T05:24:30;12.38;;;9.75;;
43487;SDS011;29078;41.932;25.554;2022-09-14T05:26:55;12.60;;;9.43;;
43487;SDS011;29078;41.932;25.554;2022-09-14T05:29:21;10.20;;;7.15;;
43487;SDS011;29078;41.932;25.554;2022-09-14T05:31:46;10.30;;;8.90;;
43487;SDS011;29078;41.932;25.554;2022-09-14T05:34:12;9.18;;;7.38;;
43487;SDS011;29078;41.932;25.554;2022-09-14T05:36:38;12.00;;;7.72;;
43487;SDS011;29078;41.932;25.554;2022-09-14T05:39:04;8.15;;;7.35;;
43487;SDS011;29078;41.932;25.554;2022-09-14T05:41:30;9.73;;;8.68;;
43487;SDS011;29078;41.932;25.554;2022-09-14T05:43:57;8.60;;;7.70;;
43487;SDS011;29078;41.932;25.554;2022-09-14T05:46:23;10.38;;;7.25;;
43487;SDS011;29078;41.932;25.554;2022-09-14T05:48:49;8.13;;;6.60;;
43487;SDS011;29078;41.932;25.554;2022-09-14T05:51:22;9.30;;;6.50;;
43487;SDS011;29078;41.932;25.554;2022-09-14T05:53:49;8.60;;;6.30;;
43487;SDS011;29078;41.932;25.554;2022-09-14T05:56:16;12.13;;;6.75;;
43487;SDS011;29078;41.932;25.554;2022-09-14T05:58:43;11.27;;;6.82;;
43487;SDS011;29078;41.932;25.554;2022-09-14T06:01:15;10.85;;;6.97;;
43487;SDS011;29078;41.932;25.554;2022-09-14T06:03:45;10.95;;;6.97;;
43487;SDS011;29078;41.932;25.554;2022-09-14T06:06:14;11.60;;;7.03;;
43487;SDS011;29078;41.932;25.554;2022-09-14T06:08:41;9.25;;;7.25;;
43487;SDS011;29078;41.932;25.554;2022-09-14T06:11:14;7.88;;;5.93;;
43487;SDS011;29078;41.932;25.554;2022-09-14T06:13:41;9.23;;;6.60;;
43487;SDS011;29078;41.932;25.554;2022-09-14T06:16:08;8.13;;;6.20;;
43487;SDS011;29078;41.932;25.554;2022-09-14T06:18:35;7.47;;;5.78;;
43487;SDS011;29078;41.932;25.554;2022-09-14T06:21:02;8.20;;;5.82;;
43487;SDS011;29078;41.932;25.554;2022-09-14T06:23:28;10.82;;;6.40;;
43487;SDS011;29078;41.932;25.554;2022-09-14T06:25:55;13.40;;;5.95;;
43487;SDS011;29078;41.932;25.554;2022-09-14T06:28:21;12.95;;;5.70;;
43487;SDS011;29078;41.932;25.554;2022-09-14T06:30:47;8.23;;;5.22;;
43487;SDS011;29078;41.932;25.554;2022-09-14T06:33:13;8.30;;;6.50;;
43487;SDS011;29078;41.932;25.554;2022-09-14T06:35:39;9.30;;;7.22;;
43487;SDS011;29078;41.932;25.554;2022-09-14T06:38:06;7.32;;;6.13;;
43487;SDS011;29078;41.932;25.554;2022-09-14T06:40:32;8.13;;;4.93;;
43487;SDS011;29078;41.932;25.554;2022-09-14T06:42:57;6.97;;;4.68;;
43487;SDS011;29078;41.932;25.554;2022-09-14T06:45:27;5.10;;;4.25;;
43487;SDS011;29078;41.932;25.554;2022-09-14T06:47:56;9.50;;;8.02;;
43487;SDS011;29078;41.932;25.554;2022-09-14T06:50:23;7.95;;;7.07;;
43487;SDS011;29078;41.932;25.554;2022-09-14T06:52:49;5.32;;;4.65;;
43487;SDS011;29078;41.932;25.554;2022-09-14T06:55:14;4.32;;;3.17;;
43487;SDS011;29078;41.932;25.554;2022-09-14T06:57:40;6.22;;;3.28;;
43487;SDS011;29078;41.932;25.554;2022-09-14T07:00:05;5.40;;;2.55;;
43487;SDS011;29078;41.932;25.554;2022-09-14T07:02:31;4.93;;;3.05;;
43487;SDS011;29078;41.932;25.554;2022-09-14T07:04:56;3.35;;;2.78;;
43487;SDS011;29078;41.932;25.554;2022-09-14T07:07:22;2.88;;;2.67;;
43487;SDS011;29078;41.932;25.554;2022-09-14T07:09:47;3.92;;;3.55;;
43487;SDS011;29078;41.932;25.554;2022-09-14T07:12:13;11.15;;;10.10;;
43487;SDS011;29078;41.932;25.554;2022-09-14T07:14:38;3.95;;;3.65;;
43487;SDS011;29078;41.932;25.554;2022-09-14T07:17:04;4.95;;;4.25;;
43487;SDS011;29078;41.932;25.554;2022-09-14T07:19:30;3.92;;;3.05;;
43487;SDS011;29078;41.932;25.554;2022-09-14T07:21:55;4.85;;;3.35;;
43487;SDS011;29078;41.932;25.554;2022-09-14T07:24:21;5.10;;;3.00;;
43487;SDS011;29078;41.932;25.554;2022-09-14T07:26:46;7.25;;;3.30;;
43487;SDS011;29078;41.932;25.554;2022-09-14T07:29:14;5.70;;;3.35;;
43487;SDS011;29078;41.932;25.554;2022-09-14T07:31:42;3.08;;;2.60;;
43487;SDS011;29078;41.932;25.554;2022-09-14T07:34:10;9.25;;;8.13;;
43487;SDS011;29078;41.932;25.554;2022-09-14T07:36:37;7.40;;;6.45;;
43487;SDS011;29078;41.932;25.554;2022-09-14T07:39:03;6.07;;;5.30;;
43487;SDS011;29078;41.932;25.554;2022-09-14T07:41:30;4.00;;;3.10;;
43487;SDS011;29078;41.932;25.554;2022-09-14T07:43:58;4.30;;;3.90;;
43487;SDS011;29078;41.932;25.554;2022-09-14T07:46:25;5.78;;;4.35;;
43487;SDS011;29078;41.932;25.554;2022-09-14T07:48:56;3.85;;;3.55;;
43487;SDS011;29078;41.932;25.554;2022-09-14T07:51:23;3.70;;;3.10;;
43487;SDS011;29078;41.932;25.554;2022-09-14T07:53:49;4.85;;;3.53;;
43487;SDS011;29078;41.932;25.554;2022-09-14T07:56:15;4.10;;;3.70;;
43487;SDS011;29078;41.932;25.554;2022-09-14T07:58:41;4.50;;;4.10;;
43487;SDS011;29078;41.932;25.554;2022-09-14T08:01:08;3.75;;;2.45;;
43487;SDS011;29078;41.932;25.554;2022-09-14T08:03:36;4.80;;;2.90;;
43487;SDS011;29078;41.932;25.554;2022-09-14T08:06:10;10.32;;;9.23;;
43487;SDS011;29078;41.932;25.554;2022-09-14T08:08:45;8.95;;;8.15;;
43487;SDS011;29078;41.932;25.554;2022-09-14T08:13:38;6.90;;;5.60;;
43487;SDS011;29078;41.932;25.554;2022-09-14T08:16:06;6.65;;;5.50;;
43487;SDS011;29078;41.932;25.554;2022-09-14T08:18:33;12.90;;;8.45;;
43487;SDS011;29078;41.932;25.554;2022-09-14T08:21:10;6.85;;;6.18;;
43487;SDS011;29078;41.932;25.554;2022-09-14T08:23:37;5.90;;;4.68;;
43487;SDS011;29078;41.932;25.554;2022-09-14T08:26:10;4.47;;;2.95;;
43487;SDS011;29078;41.932;25.554;2022-09-14T08:28:38;3.55;;;3.15;;
43487;SDS011;29078;41.932;25.554;2022-09-14T08:31:05;7.00;;;4.93;;
43487;SDS011;29078;41.932;25.554;2022-09-14T08:33:52;4.53;;;3.60;;
43487;SDS011;29078;41.932;25.554;2022-09-14T08:36:22;3.65;;;3.35;;
43487;SDS011;29078;41.932;25.554;2022-09-14T08:38:48;4.90;;;3.65;;
43487;SDS011;29078;41.932;25.554;2022-09-14T08:41:21;3.70;;;3.17;;
43487;SDS011;29078;41.932;25.554;2022-09-14T08:43:49;6.15;;;3.70;;
43487;SDS011;29078;41.932;25.554;2022-09-14T08:46:29;10.60;;;9.55;;
43487;SDS011;29078;41.932;25.554;2022-09-14T08:48:58;4.35;;;3.65;;
43487;SDS011;29078;41.932;25.554;2022-09-14T08:51:25;4.57;;;2.95;;
43487;SDS011;29078;41.932;25.554;2022-09-14T08:53:51;3.92;;;2.50;;
43487;SDS011;29078;41.932;25.554;2022-09-14T08:56:22;2.50;;;2.30;;
43487;SDS011;29078;41.932;25.554;2022-09-14T09:09:32;4.07;;;3.50;;
43487;SDS011;29078;41.932;25.554;2022-09-14T09:12:00;2.83;;;2.20;;
43487;SDS011;29078;41.932;25.554;2022-09-14T09:14:30;2.95;;;2.28;;
43487;SDS011;29078;41.932;25.554;2022-09-14T09:16:58;3.40;;;2.42;;
43487;SDS011;29078;41.932;25.554;2022-09-14T09:19:37;2.78;;;1.70;;
43487;SDS011;29078;41.932;25.554;2022-09-14T09:22:13;2.33;;;2.00;;
43487;SDS011;29078;41.932;25.554;2022-09-14T09:24:42;2.72;;;2.38;;
43487;SDS011;29078;41.932;25.554;2022-09-14T09:27:13;4.10;;;2.05;;
43487;SDS011;29078;41.932;25.554;2022-09-14T09:29:39;2.10;;;2.00;;
43487;SDS011;29078;41.932;25.554;2022-09-14T09:32:24;2.20;;;2.00;;
43487;SDS011;29078;41.932;25.554;2022-09-14T09:34:50;2.83;;;2.40;;
43487;SDS011;29078;41.932;25.554;2022-09-14T09:37:16;3.72;;;2.03;;
43487;SDS011;29078;41.932;25.554;2022-09-14T09:39:45;3.30;;;2.22;;
43487;SDS011;29078;41.932;25.554;2022-09-14T09:42:12;7.38;;;6.65;;
43487;SDS011;29078;41.932;25.554;2022-09-14T09:44:52;2.90;;;2.70;;
43487;SDS011;29078;41.932;25.554;2022-09-14T09:47:23;2.63;;;2.42;;
43487;SDS011;29078;41.932;25.554;2022-09-14T09:49:55;3.00;;;2.13;;
43487;SDS011;29078;41.932;25.554;2022-09-14T09:52:23;2.47;;;2.13;;
43487;SDS011;29078;41.932;25.554;2022-09-14T09:54:49;4.50;;;4.10;;
43487;SDS011;29078;41.932;25.554;2022-09-14T09:57:33;5.07;;;3.85;;
43487;SDS011;29078;41.932;25.554;2022-09-14T10:00:07;1.90;;;1.80;;
43487;SDS011;29078;41.932;25.554;2022-09-14T10:02:33;8.70;;;7.82;;
43487;SDS011;29078;41.932;25.554;2022-09-14T10:05:00;3.42;;;3.13;;
43487;SDS011;29078;41.932;25.554;2022-09-14T10:10:37;4.70;;;3.92;;
43487;SDS011;29078;41.932;25.554;2022-09-14T10:13:04;3.70;;;2.67;;
43487;SDS011;29078;41.932;25.554;2022-09-14T10:15:40;2.70;;;2.50;;
43487;SDS011;29078;41.932;25.554;2022-09-14T10:20:40;3.35;;;2.00;;
43487;SDS011;29078;41.932;25.554;2022-09-14T10:25:48;2.70;;;2.50;;
43487;SDS011;29078;41.932;25.554;2022-09-14T10:30:57;4.38;;;3.50;;
43487;SDS011;29078;41.932;25.554;2022-09-14T10:33:29;1.92;;;1.80;;
43487;SDS011;29078;41.932;25.554;2022-09-14T10:38:45;3.40;;;3.10;;
43487;SDS011;29078;41.932;25.554;2022-09-14T10:46:27;4.00;;;3.10;;
43487;SDS011;29078;41.932;25.554;2022-09-14T10:49:17;2.85;;;2.20;;
43487;SDS011;29078;41.932;25.554;2022-09-14T11:00:34;3.35;;;3.10;;
43487;SDS011;29078;41.932;25.554;2022-09-14T11:08:21;2.83;;;1.98;;
43487;SDS011;29078;41.932;25.554;2022-09-14T11:16:39;1.92;;;1.70;;
43487;SDS011;29078;41.932;25.554;2022-09-14T11:22:49;3.22;;;1.65;;
43487;SDS011;29078;41.932;25.554;2022-09-14T11:25:15;2.58;;;1.45;;
43487;SDS011;29078;41.932;25.554;2022-09-14T11:27:50;2.00;;;1.67;;
43487;SDS011;29078;41.932;25.554;2022-09-14T11:30:21;1.27;;;1.17;;
43487;SDS011;29078;41.932;25.554;2022-09-14T11:35:34;2.50;;;2.30;;
43487;SDS011;29078;41.932;25.554;2022-09-14T11:43:39;2.00;;;1.52;;
43487;SDS011;29078;41.932;25.554;2022-09-14T11:46:29;3.83;;;1.55;;
43487;SDS011;29078;41.932;25.554;2022-09-14T11:51:45;3.22;;;1.50;;
43487;SDS011;29078;41.932;25.554;2022-09-14T11:54:17;2.33;;;1.85;;
43487;SDS011;29078;41.932;25.554;2022-09-14T11:56:47;3.90;;;1.70;;
43487;SDS011;29078;41.932;25.554;2022-09-14T12:17:41;3.33;;;2.80;;
43487;SDS011;29078;41.932;25.554;2022-09-14T12:26:01;1.90;;;1.20;;
43487;SDS011;29078;41.932;25.554;2022-09-14T12:35:58;3.00;;;1.30;;
43487;SDS011;29078;41.932;25.554;2022-09-14T12:40:54;3.45;;;1.67;;
43487;SDS011;29078;41.932;25.554;2022-09-14T12:46:06;2.58;;;1.70;;
43487;SDS011;29078;41.932;25.554;2022-09-14T12:48:57;2.03;;;1.50;;
43487;SDS011;29078;41.932;25.554;2022-09-14T12:59:14;4.28;;;1.40;;
43487;SDS011;29078;41.932;25.554;2022-09-14T13:01:56;1.25;;;1.15;;
43487;SDS011;29078;41.932;25.554;2022-09-14T13:07:16;2.22;;;1.75;;
43487;SDS011;29078;41.932;25.554;2022-09-14T13:09:50;2.10;;;1.90;;
43487;SDS011;29078;41.932;25.554;2022-09-14T13:12:35;2.85;;;2.58;;
43487;SDS011;29078;41.932;25.554;2022-09-14T13:15:27;11.85;;;2.65;;
43487;SDS011;29078;41.932;25.554;2022-09-14T13:18:01;1.92;;;1.67;;
43487;SDS011;29078;41.932;25.554;2022-09-14T13:20:32;11.48;;;9.57;;
43487;SDS011;29078;41.932;25.554;2022-09-14T13:22:59;4.65;;;2.70;;
43487;SDS011;29078;41.932;25.554;2022-09-14T13:28:12;14.10;;;3.22;;
43487;SDS011;29078;41.932;25.554;2022-09-14T13:33:15;4.43;;;3.47;;
43487;SDS011;29078;41.932;25.554;2022-09-14T13:35:45;5.15;;;4.75;;
43487;SDS011;29078;41.932;25.554;2022-09-14T13:38:14;2.78;;;1.75;;
43487;SDS011;29078;41.932;25.554;2022-09-14T13:40:43;2.42;;;1.85;;
43487;SDS011;29078;41.932;25.554;2022-09-14T13:43:10;3.13;;;2.63;;
43487;SDS011;29078;41.932;25.554;2022-09-14T13:45:36;4.78;;;3.22;;
43487;SDS011;29078;41.932;25.554;2022-09-14T13:48:03;5.60;;;3.65;;
43487;SDS011;29078;41.932;25.554;2022-09-14T13:50:30;4.20;;;1.80;;
43487;SDS011;29078;41.932;25.554;2022-09-14T13:52:57;5.82;;;5.20;;
43487;SDS011;29078;41.932;25.554;2022-09-14T13:58:14;2.97;;;2.67;;
43487;SDS011;29078;41.932;25.554;2022-09-14T14:00:55;5.60;;;4.82;;
43487;SDS011;29078;41.932;25.554;2022-09-14T14:06:24;4.07;;;3.10;;
43487;SDS011;29078;41.932;25.554;2022-09-14T14:08:56;5.80;;;3.33;;
43487;SDS011;29078;41.932;25.554;2022-09-14T14:11:29;3.53;;;2.78;;
43487;SDS011;29078;41.932;25.554;2022-09-14T14:19:35;5.35;;;1.90;;
43487;SDS011;29078;41.932;25.554;2022-09-14T14:22:14;2.78;;;1.98;;
43487;SDS011;29078;41.932;25.554;2022-09-14T14:24:43;3.70;;;2.20;;
43487;SDS011;29078;41.932;25.554;2022-09-14T14:29:57;3.13;;;1.90;;
43487;SDS011;29078;41.932;25.554;2022-09-14T14:32:24;3.30;;;1.90;;
43487;SDS011;29078;41.932;25.554;2022-09-14T14:34:50;3.20;;;2.90;;
43487;SDS011;29078;41.932;25.554;2022-09-14T14:37:17;6.30;;;2.70;;
43487;SDS011;29078;41.932;25.554;2022-09-14T14:39:44;3.20;;;2.03;;
43487;SDS011;29078;41.932;25.554;2022-09-14T14:42:09;6.20;;;2.40;;
43487;SDS011;29078;41.932;25.554;2022-09-14T14:44:35;5.53;;;4.43;;
43487;SDS011;29078;41.932;25.554;2022-09-14T14:47:01;4.32;;;2.03;;
43487;SDS011;29078;41.932;25.554;2022-09-14T14:49:29;2.78;;;2.50;;
43487;SDS011;29078;41.932;25.554;2022-09-14T14:51:55;2.60;;;1.90;;
43487;SDS011;29078;41.932;25.554;2022-09-14T14:54:20;4.47;;;3.35;;
43487;SDS011;29078;41.932;25.554;2022-09-14T14:56:46;9.25;;;7.30;;
43487;SDS011;29078;41.932;25.554;2022-09-14T15:01:45;3.17;;;2.13;;
43487;SDS011;29078;41.932;25.554;2022-09-14T15:04:13;6.88;;;2.45;;
43487;SDS011;29078;41.932;25.554;2022-09-14T15:06:39;4.10;;;2.42;;
43487;SDS011;29078;41.932;25.554;2022-09-14T15:09:05;3.83;;;2.38;;
43487;SDS011;29078;41.932;25.554;2022-09-14T15:11:37;4.13;;;2.60;;
43487;SDS011;29078;41.932;25.554;2022-09-14T15:14:05;3.30;;;2.63;;
43487;SDS011;29078;41.932;25.554;2022-09-14T15:16:35;4.10;;;2.35;;
43487;SDS011;29078;41.932;25.554;2022-09-14T15:19:01;4.10;;;2.40;;
43487;SDS011;29078;41.932;25.554;2022-09-14T15:21:26;2.78;;;1.95;;
43487;SDS011;29078;41.932;25.554;2022-09-14T15:23:51;3.33;;;2.10;;
43487;SDS011;29078;41.932;25.554;2022-09-14T15:26:17;3.15;;;1.70;;
43487;SDS011;29078;41.932;25.554;2022-09-14T15:28:42;2.65;;;2.13;;
43487;SDS011;29078;41.932;25.554;2022-09-14T15:31:09;3.00;;;1.75;;
43487;SDS011;29078;41.932;25.554;2022-09-14T15:33:35;4.38;;;2.10;;
43487;SDS011;29078;41.932;25.554;2022-09-14T15:36:01;3.92;;;2.08;;
43487;SDS011;29078;41.932;25.554;2022-09-14T15:38:27;3.83;;;2.50;;
43487;SDS011;29078;41.932;25.554;2022-09-14T15:40:53;4.60;;;2.88;;
43487;SDS011;29078;41.932;25.554;2022-09-14T15:43:18;6.18;;;4.03;;
43487;SDS011;29078;41.932;25.554;2022-09-14T15:45:44;5.38;;;3.83;;
43487;SDS011;29078;41.932;25.554;2022-09-14T15:48:13;4.72;;;2.95;;
43487;SDS011;29078;41.932;25.554;2022-09-14T15:50:40;3.77;;;2.70;;
43487;SDS011;29078;41.932;25.554;2022-09-14T15:53:08;2.30;;;2.05;;
43487;SDS011;29078;41.932;25.554;2022-09-14T15:55:37;5.63;;;2.40;;
43487;SDS011;29078;41.932;25.554;2022-09-14T15:58:04;4.80;;;2.10;;
43487;SDS011;29078;41.932;25.554;2022-09-14T16:00:30;3.17;;;2.20;;
43487;SDS011;29078;41.932;25.554;2022-09-14T16:02:55;4.68;;;1.90;;
43487;SDS011;29078;41.932;25.554;2022-09-14T16:05:21;2.60;;;1.90;;
43487;SDS011;29078;41.932;25.554;2022-09-14T16:07:46;7.38;;;3.15;;
43487;SDS011;29078;41.932;25.554;2022-09-14T16:10:12;9.70;;;3.40;;
43487;SDS011;29078;41.932;25.554;2022-09-14T16:12:37;6.90;;;3.70;;
43487;SDS011;29078;41.932;25.554;2022-09-14T16:15:03;7.70;;;3.55;;
43487;SDS011;29078;41.932;25.554;2022-09-14T16:17:28;9.75;;;3.63;;
43487;SDS011;29078;41.932;25.554;2022-09-14T16:19:54;7.90;;;3.05;;
43487;SDS011;29078;41.932;25.554;2022-09-14T16:22:19;5.82;;;3.00;;
43487;SDS011;29078;41.932;25.554;2022-09-14T16:24:45;6.32;;;3.40;;
43487;SDS011;29078;41.932;25.554;2022-09-14T16:27:11;7.72;;;2.70;;
43487;SDS011;29078;41.932;25.554;2022-09-14T16:29:36;7.88;;;3.10;;
43487;SDS011;29078;41.932;25.554;2022-09-14T16:32:03;7.97;;;3.28;;
43487;SDS011;29078;41.932;25.554;2022-09-14T16:34:29;3.92;;;2.88;;
43487;SDS011;29078;41.932;25.554;2022-09-14T16:36:55;7.85;;;3.58;;
43487;SDS011;29078;41.932;25.554;2022-09-14T16:39:23;4.00;;;3.60;;
43487;SDS011;29078;41.932;25.554;2022-09-14T16:41:50;5.50;;;3.58;;
43487;SDS011;29078;41.932;25.554;2022-09-14T16:44:17;8.93;;;4.07;;
43487;SDS011;29078;41.932;25.554;2022-09-14T16:46:44;6.32;;;3.63;;
43487;SDS011;29078;41.932;25.554;2022-09-14T16:49:12;10.00;;;4.22;;
43487;SDS011;29078;41.932;25.554;2022-09-14T16:51:38;11.07;;;5.00;;
43487;SDS011;29078;41.932;25.554;2022-09-14T16:54:03;10.93;;;5.18;;
43487;SDS011;29078;41.932;25.554;2022-09-14T16:56:38;7.60;;;4.22;;
43487;SDS011;29078;41.932;25.554;2022-09-14T16:59:03;8.07;;;3.50;;
43487;SDS011;29078;41.932;25.554;2022-09-14T17:01:31;5.93;;;3.30;;
43487;SDS011;29078;41.932;25.554;2022-09-14T17:04:11;4.95;;;3.13;;
43487;SDS011;29078;41.932;25.554;2022-09-14T17:06:39;5.78;;;3.53;;
43487;SDS011;29078;41.932;25.554;2022-09-14T17:09:07;5.03;;;3.80;;
43487;SDS011;29078;41.932;25.554;2022-09-14T17:11:35;5.38;;;3.40;;
43487;SDS011;29078;41.932;25.554;2022-09-14T17:14:02;5.82;;;3.47;;
43487;SDS011;29078;41.932;25.554;2022-09-14T17:16:28;5.22;;;3.58;;
43487;SDS011;29078;41.932;25.554;2022-09-14T17:18:57;4.75;;;3.03;;
43487;SDS011;29078;41.932;25.554;2022-09-14T17:21:28;3.72;;;3.30;;
43487;SDS011;29078;41.932;25.554;2022-09-14T17:26:21;6.00;;;3.42;;
43487;SDS011;29078;41.932;25.554;2022-09-14T17:28:48;5.10;;;2.78;;
43487;SDS011;29078;41.932;25.554;2022-09-14T17:31:19;3.95;;;3.20;;